createdAt,value
2019-04-06T00:01:55.452Z,11.00
2019-04-06T00:04:27.073Z,8.55
2019-04-06T00:06:58.662Z,10.82
2019-04-06T00:09:30.289Z,12.98
2019-04-06T00:12:01.941Z,12.03
2019-04-06T00:14:35.068Z,9.18
2019-04-06T00:17:06.723Z,15.75
2019-04-06T00:19:38.374Z,15.03
2019-04-06T00:22:09.986Z,8.75
2019-04-06T00:24:41.581Z,16.97
2019-04-06T00:27:13.203Z,10.95
2019-04-06T00:29:44.823Z,12.55
2019-04-06T00:32:35.643Z,10.60
2019-04-06T00:35:07.608Z,7.78
2019-04-06T00:37:40.182Z,8.40
2019-04-06T00:40:12.012Z,8.73
2019-04-06T00:42:43.575Z,10.28
2019-04-06T00:45:15.342Z,12.35
2019-04-06T00:47:47.988Z,6.62
2019-04-06T00:50:19.676Z,10.30
2019-04-06T00:52:51.303Z,9.10
2019-04-06T00:55:22.992Z,2.90
2019-04-06T00:57:54.655Z,6.12
2019-04-06T01:00:26.644Z,5.45
2019-04-06T01:02:58.293Z,6.90
2019-04-06T01:05:30.004Z,7.60
2019-04-06T01:08:01.643Z,5.25
2019-04-06T01:10:34.542Z,6.10
2019-04-06T01:13:06.174Z,4.05
2019-04-06T01:15:37.779Z,4.42
2019-04-06T01:18:09.381Z,3.90
2019-04-06T01:20:41.109Z,7.47
2019-04-06T01:23:12.647Z,6.47
2019-04-06T01:25:44.318Z,5.70
2019-04-06T01:28:15.954Z,6.15
2019-04-06T01:30:47.533Z,5.40
2019-04-06T01:33:19.360Z,3.62
2019-04-06T01:35:51.036Z,3.92
2019-04-06T01:38:22.630Z,8.43
2019-04-06T01:40:54.208Z,10.00
2019-04-06T01:43:25.841Z,7.08
2019-04-06T01:45:57.465Z,5.90
2019-04-06T01:48:30.762Z,4.35
2019-04-06T01:51:03.866Z,5.55
2019-04-06T01:53:35.443Z,4.97
2019-04-06T01:56:17.636Z,10.72
2019-04-06T01:58:40.349Z,11.20
2019-04-06T02:01:18.360Z,5.47
2019-04-06T02:03:50.018Z,6.00
2019-04-06T02:06:21.632Z,5.25
2019-04-06T02:08:53.247Z,1.55
2019-04-06T02:11:25.056Z,5.55
2019-04-06T02:13:56.607Z,3.25
2019-04-06T02:16:29.567Z,9.55
2019-04-06T02:19:01.491Z,6.13
2019-04-06T02:21:33.101Z,4.85
2019-04-06T02:24:04.647Z,9.90
2019-04-06T02:26:36.301Z,10.63
2019-04-06T02:29:07.850Z,8.25
2019-04-06T02:32:04.252Z,13.28
2019-04-06T02:34:53.714Z,20.23
2019-04-06T02:37:53.179Z,14.00
2019-04-06T02:40:47.360Z,8.68
2019-04-06T02:43:21.857Z,8.78
2019-04-06T02:45:53.576Z,6.97
2019-04-06T02:48:25.233Z,5.35
2019-04-06T02:50:58.444Z,5.95
2019-04-06T02:53:30.089Z,6.67
2019-04-06T02:56:02.166Z,1.77
2019-04-06T02:58:33.932Z,5.65
2019-04-06T03:01:05.673Z,5.58
2019-04-06T03:03:38.245Z,4.78
2019-04-06T03:06:09.814Z,3.98
2019-04-06T03:08:41.510Z,5.43
2019-04-06T03:11:13.247Z,4.30
2019-04-06T03:13:44.822Z,4.15
2019-04-06T03:16:16.422Z,2.35
2019-04-06T03:18:48.039Z,5.70
2019-04-06T03:21:19.595Z,6.83
2019-04-06T03:23:52.374Z,9.28
2019-04-06T03:26:25.494Z,4.30
2019-04-06T03:28:57.850Z,4.10
2019-04-06T03:31:29.548Z,5.78
2019-04-06T03:34:01.191Z,12.70
2019-04-06T03:36:32.937Z,7.35
2019-04-06T03:39:05.465Z,4.72
2019-04-06T03:41:37.058Z,8.50
2019-04-06T03:44:08.824Z,8.18
2019-04-06T03:46:40.449Z,7.90
2019-04-06T03:49:11.995Z,13.70
2019-04-06T03:51:43.529Z,4.72
2019-04-06T03:54:15.417Z,4.65
2019-04-06T03:56:46.951Z,8.43
2019-04-06T03:59:18.648Z,8.98
2019-04-06T04:01:50.523Z,6.65
2019-04-06T04:04:22.058Z,8.80
2019-04-06T04:06:55.293Z,6.47
2019-04-06T04:09:26.802Z,7.83
2019-04-06T04:11:58.654Z,7.70
2019-04-06T04:14:30.218Z,9.50
2019-04-06T04:17:01.764Z,8.80
2019-04-06T04:19:33.339Z,8.73
2019-04-06T04:22:04.910Z,6.37
2019-04-06T04:24:36.443Z,6.83
2019-04-06T04:27:08.075Z,8.28
2019-04-06T04:29:39.627Z,13.95
2019-04-06T04:32:11.165Z,8.78
2019-04-06T04:34:42.714Z,4.20
2019-04-06T04:37:14.279Z,4.42
2019-04-06T04:39:45.817Z,4.00
2019-04-06T04:42:17.430Z,1.92
2019-04-06T04:44:49.469Z,3.00
2019-04-06T04:47:21.186Z,7.05
2019-04-06T04:49:52.737Z,4.72
2019-04-06T04:52:26.160Z,4.15
2019-04-06T04:54:58.190Z,3.80
2019-04-06T04:57:39.581Z,10.98
2019-04-06T05:00:03.064Z,7.17
2019-04-06T05:02:34.913Z,4.55
2019-04-06T05:05:09.271Z,5.50
2019-04-06T05:07:40.085Z,6.05
2019-04-06T05:10:11.943Z,1.57
2019-04-06T05:12:43.512Z,3.27
2019-04-06T05:15:21.091Z,4.30
2019-04-06T05:17:53.620Z,4.60
2019-04-06T05:20:25.149Z,3.60
2019-04-06T05:22:57.264Z,4.37
2019-04-06T05:25:28.802Z,4.37
2019-04-06T05:28:00.344Z,4.45
2019-04-06T05:30:31.979Z,7.87
2019-04-06T05:33:03.525Z,3.40
2019-04-06T05:35:35.091Z,3.02
2019-04-06T05:38:06.655Z,6.70
2019-04-06T05:40:39.191Z,3.73
2019-04-06T05:43:10.739Z,2.55
2019-04-06T05:45:42.656Z,6.45
2019-04-06T05:48:14.461Z,4.90
2019-04-06T05:50:46.024Z,9.33
2019-04-06T05:53:17.591Z,6.47
2019-04-06T05:55:49.145Z,5.07
2019-04-06T05:58:21.001Z,10.00
2019-04-06T06:00:52.688Z,11.43
2019-04-06T06:03:24.260Z,11.10
2019-04-06T06:05:55.808Z,13.70
2019-04-06T06:08:27.376Z,13.45
2019-04-06T06:10:59.353Z,14.23
2019-04-06T06:13:30.897Z,14.43
2019-04-06T06:16:02.447Z,11.53
2019-04-06T06:18:33.990Z,13.13
2019-04-06T06:21:05.745Z,11.75
2019-04-06T06:23:37.379Z,16.57
2019-04-06T06:26:08.946Z,19.87
2019-04-06T06:28:40.585Z,19.92
2019-04-06T06:31:12.145Z,21.87
2019-04-06T06:33:43.799Z,16.52
2019-04-06T06:36:15.528Z,20.88
2019-04-06T06:38:47.071Z,19.27
2019-04-06T06:41:18.697Z,20.75
2019-04-06T06:43:50.599Z,16.45
2019-04-06T06:46:22.375Z,16.67
2019-04-06T06:48:54.265Z,17.57
2019-04-06T06:51:25.817Z,9.80
2019-04-06T06:53:57.675Z,18.65
2019-04-06T06:56:29.343Z,28.65
2019-04-06T06:59:00.901Z,23.32
2019-04-06T07:01:32.443Z,18.75
2019-04-06T07:04:04.000Z,13.95
2019-04-06T07:06:35.542Z,14.55
2019-04-06T07:09:08.413Z,18.62
2019-04-06T07:11:39.943Z,14.47
2019-04-06T07:14:12.743Z,15.15
2019-04-06T07:16:44.430Z,9.83
2019-04-06T07:19:16.051Z,13.08
2019-04-06T07:21:47.577Z,12.98
2019-04-06T07:24:19.732Z,13.08
2019-04-06T07:26:51.258Z,12.18
2019-04-06T07:29:22.813Z,17.00
2019-04-06T07:31:54.365Z,12.95
2019-04-06T07:34:26.065Z,14.28
2019-04-06T07:36:57.732Z,16.02
2019-04-06T07:39:29.272Z,11.65
2019-04-06T07:42:01.235Z,18.80
2019-04-06T07:44:32.782Z,12.28
2019-04-06T07:47:04.547Z,16.05
2019-04-06T07:49:36.094Z,12.47
2019-04-06T07:52:07.917Z,13.10
2019-04-06T07:54:39.468Z,13.38
2019-04-06T07:57:11.015Z,28.55
2019-04-06T07:59:42.580Z,17.25
2019-04-06T08:02:14.158Z,23.60
2019-04-06T08:04:45.733Z,22.62
2019-04-06T08:07:17.308Z,20.30
2019-04-06T08:09:48.854Z,14.98
2019-04-06T08:12:20.404Z,18.00
2019-04-06T08:14:52.238Z,21.68
2019-04-06T08:17:23.825Z,13.38
2019-04-06T08:19:55.776Z,23.47
2019-04-06T08:22:27.351Z,15.95
2019-04-06T08:24:59.094Z,13.53
2019-04-06T08:27:30.643Z,15.48
2019-04-06T08:30:02.307Z,18.73
2019-04-06T08:32:34.258Z,15.93
2019-04-06T08:35:06.363Z,15.80
2019-04-06T08:37:37.903Z,14.68
2019-04-06T08:40:10.239Z,15.23
2019-04-06T08:42:42.135Z,15.08
2019-04-06T08:45:14.324Z,13.40
2019-04-06T08:47:46.909Z,13.93
2019-04-06T08:50:18.674Z,23.05
2019-04-06T08:52:50.213Z,24.12
2019-04-06T08:55:21.746Z,20.12
2019-04-06T08:57:53.404Z,22.90
2019-04-06T09:00:24.954Z,13.58
2019-04-06T09:02:56.525Z,7.12
2019-04-06T09:05:28.068Z,10.93
2019-04-06T09:07:59.627Z,14.20
2019-04-06T09:10:31.169Z,8.68
2019-04-06T09:13:02.709Z,17.82
2019-04-06T09:15:34.439Z,10.68
2019-04-06T09:18:06.967Z,14.83
2019-04-06T09:20:38.498Z,11.18
2019-04-06T09:23:10.049Z,15.72
2019-04-06T09:25:41.603Z,15.35
2019-04-06T09:28:13.152Z,13.55
2019-04-06T09:30:44.714Z,21.37
2019-04-06T09:33:17.454Z,12.18
2019-04-06T09:35:49.300Z,14.65
2019-04-06T09:38:21.012Z,12.70
2019-04-06T09:40:52.672Z,12.25
2019-04-06T09:43:24.413Z,14.47
2019-04-06T09:46:13.500Z,16.82
2019-04-06T09:48:59.463Z,10.38
2019-04-06T09:52:01.645Z,7.58
2019-04-06T09:54:43.039Z,10.25
2019-04-06T09:57:33.674Z,10.88
2019-04-06T10:00:28.875Z,12.55
2019-04-06T10:03:25.396Z,10.75
2019-04-06T10:06:15.810Z,11.15
2019-04-06T10:09:05.717Z,12.75
2019-04-06T10:11:50.704Z,8.13
2019-04-06T10:14:39.788Z,17.30
2019-04-06T10:17:30.162Z,12.35
2019-04-06T10:20:10.679Z,17.00
2019-04-06T10:23:01.378Z,15.20
2019-04-06T10:25:54.848Z,18.87
2019-04-06T10:28:45.273Z,18.73
2019-04-06T10:31:51.886Z,18.10
2019-04-06T10:34:40.829Z,13.00
2019-04-06T10:37:26.710Z,19.27
2019-04-06T10:40:23.320Z,12.18
2019-04-06T10:43:25.700Z,13.90
2019-04-06T10:46:06.935Z,17.12
2019-04-06T10:48:49.774Z,15.60
2019-04-06T10:51:49.165Z,11.85
2019-04-06T10:54:37.838Z,20.15
2019-04-06T10:57:26.907Z,18.55
2019-04-06T11:00:32.454Z,22.42
2019-04-06T11:03:28.797Z,14.75
2019-04-06T11:06:14.291Z,18.20
2019-04-06T11:08:55.177Z,12.25
2019-04-06T11:11:48.617Z,10.53
2019-04-06T11:14:45.823Z,13.05
2019-04-06T11:17:34.834Z,12.23
2019-04-06T11:20:24.805Z,14.70
2019-04-06T11:23:18.592Z,11.95
2019-04-06T11:26:02.709Z,14.30
2019-04-06T11:28:56.253Z,10.35
2019-04-06T11:31:45.134Z,10.48
2019-04-06T11:34:38.348Z,13.60
2019-04-06T11:37:35.389Z,14.45
2019-04-06T11:40:33.063Z,16.25
2019-04-06T11:43:26.266Z,12.80
2019-04-06T11:46:28.789Z,10.93
2019-04-06T11:49:22.003Z,11.88
2019-04-06T11:52:16.434Z,18.85
2019-04-06T11:55:18.712Z,9.90
2019-04-06T11:58:12.471Z,17.85
2019-04-06T12:00:54.836Z,11.08
2019-04-06T12:03:54.413Z,16.55
2019-04-06T12:06:35.823Z,13.55
2019-04-06T12:09:15.852Z,14.13
2019-04-06T12:12:12.210Z,9.35
2019-04-06T12:15:03.289Z,8.33
2019-04-06T12:17:52.100Z,10.18
2019-04-06T12:20:44.798Z,11.30
2019-04-06T12:23:38.343Z,8.80
2019-04-06T12:26:27.402Z,12.55
2019-04-06T12:29:17.036Z,10.88
2019-04-06T12:32:25.632Z,12.63
2019-04-06T12:35:14.273Z,8.63
2019-04-06T12:37:52.732Z,14.28
2019-04-06T12:40:45.950Z,13.80
2019-04-06T12:43:40.775Z,11.88
2019-04-06T12:46:24.861Z,16.57
2019-04-06T12:49:21.148Z,13.75
2019-04-06T12:52:06.626Z,18.60
2019-04-06T12:55:15.209Z,12.15
2019-04-06T12:58:09.009Z,12.90
2019-04-06T13:00:54.065Z,10.82
2019-04-06T13:03:43.262Z,11.40
2019-04-06T13:06:42.813Z,9.00
2019-04-06T13:09:36.086Z,10.93
2019-04-06T13:12:27.840Z,8.73
2019-04-06T13:15:16.566Z,7.00
2019-04-06T13:17:58.480Z,17.92
2019-04-06T13:21:01.224Z,7.72
2019-04-06T13:23:51.842Z,8.83
2019-04-06T13:26:39.450Z,13.50
2019-04-06T13:29:41.744Z,11.55
2019-04-06T13:32:35.662Z,7.25
2019-04-06T13:35:23.491Z,13.08
2019-04-06T13:38:28.879Z,15.75
2019-04-06T13:41:39.037Z,17.32
2019-04-06T13:44:28.308Z,10.75
2019-04-06T13:47:15.534Z,13.80
2019-04-06T13:50:07.553Z,10.90
2019-04-06T13:52:56.700Z,15.03
2019-04-06T13:56:02.068Z,8.13
2019-04-06T13:58:38.134Z,8.73
2019-04-06T14:01:34.728Z,13.30
2019-04-06T14:04:25.103Z,7.53
2019-04-06T14:07:18.715Z,10.40
2019-04-06T14:10:08.321Z,7.17
2019-04-06T14:12:59.019Z,14.30
2019-04-06T14:15:42.402Z,12.60
2019-04-06T14:18:31.460Z,10.00
2019-04-06T14:21:31.658Z,11.80
2019-04-06T14:24:22.110Z,13.70
2019-04-06T14:27:15.312Z,14.23
2019-04-06T14:30:03.565Z,9.75
2019-04-06T14:32:54.180Z,14.28
2019-04-06T14:35:43.814Z,9.30
2019-04-06T14:38:32.673Z,9.40
2019-04-06T14:41:39.995Z,9.63
2019-04-06T14:44:30.693Z,9.53
2019-04-06T14:47:20.591Z,10.20
2019-04-06T14:49:59.758Z,10.70
2019-04-06T14:52:53.250Z,12.95
2019-04-06T14:55:40.201Z,7.03
2019-04-06T14:58:37.155Z,9.50
2019-04-06T15:01:45.446Z,10.78
2019-04-06T15:04:27.924Z,8.43
2019-04-06T15:07:23.587Z,18.23
2019-04-06T15:10:10.867Z,14.07
2019-04-06T15:12:59.908Z,9.15
2019-04-06T15:15:43.178Z,11.30
2019-04-06T15:18:30.989Z,12.60
2019-04-06T15:21:09.827Z,11.68
2019-04-06T15:24:06.262Z,8.80
2019-04-06T15:26:57.294Z,4.95
2019-04-06T15:29:36.659Z,10.18
2019-04-06T15:32:30.121Z,7.92
2019-04-06T15:35:23.608Z,11.95
2019-04-06T15:38:16.766Z,12.45
2019-04-06T15:41:05.703Z,6.60
2019-04-06T15:43:56.633Z,5.53
2019-04-06T15:46:47.155Z,11.18
2019-04-06T15:49:36.277Z,8.00
2019-04-06T15:52:26.773Z,10.53
2019-04-06T15:55:14.540Z,12.53
2019-04-06T15:57:56.697Z,8.53
2019-04-06T16:00:53.320Z,8.65
2019-04-06T16:03:37.828Z,6.37
2019-04-06T16:06:35.258Z,10.23
2019-04-06T16:09:25.578Z,10.90
2019-04-06T16:12:16.459Z,7.10
2019-04-06T16:15:13.623Z,7.30
2019-04-06T16:18:02.450Z,8.48
2019-04-06T16:20:46.872Z,8.18
2019-04-06T16:23:44.433Z,9.10
2019-04-06T16:26:44.482Z,9.10
2019-04-06T16:29:46.867Z,9.05
2019-04-06T16:32:40.071Z,5.20
2019-04-06T16:35:44.449Z,8.25
2019-04-06T16:38:26.928Z,6.15
2019-04-06T16:41:15.727Z,9.63
2019-04-06T16:43:53.701Z,6.78
2019-04-06T16:46:45.349Z,10.75
2019-04-06T16:49:42.332Z,9.23
2019-04-06T16:52:38.824Z,12.70
2019-04-06T16:55:29.418Z,7.20
2019-04-06T16:58:09.728Z,13.90
2019-04-06T17:01:18.370Z,10.78
2019-04-06T17:04:00.356Z,10.80
2019-04-06T17:06:49.866Z,7.95
2019-04-06T17:09:34.425Z,8.30
2019-04-06T17:12:42.895Z,11.83
2019-04-06T17:15:39.362Z,6.47
2019-04-06T17:18:44.694Z,6.35
2019-04-06T17:21:53.282Z,9.88
2019-04-06T17:24:37.414Z,11.90
2019-04-06T17:27:21.426Z,16.07
2019-04-06T17:30:10.307Z,8.20
2019-04-06T17:32:49.366Z,8.33
2019-04-06T17:35:29.943Z,13.95
2019-04-06T17:38:20.469Z,12.00
2019-04-06T17:41:07.716Z,16.10
2019-04-06T17:44:01.061Z,11.95
2019-04-06T17:47:03.869Z,22.70
2019-04-06T17:49:52.877Z,9.73
2019-04-06T17:52:44.984Z,10.53
2019-04-06T17:55:47.724Z,46.98
2019-04-06T17:58:38.241Z,20.88
2019-04-06T18:01:34.604Z,30.08
2019-04-06T18:04:28.228Z,15.35
2019-04-06T18:07:19.010Z,11.55
2019-04-06T18:10:06.945Z,14.33
2019-04-06T18:12:57.582Z,14.60
2019-04-06T18:15:29.928Z,18.85
2019-04-06T18:18:01.971Z,16.07
2019-04-06T18:20:35.302Z,8.48
2019-04-06T18:23:07.308Z,8.60
2019-04-06T18:25:39.123Z,9.23
2019-04-06T18:28:12.405Z,10.13
2019-04-06T18:30:46.552Z,6.20
2019-04-06T18:33:21.839Z,11.83
2019-04-06T18:35:53.528Z,12.58
2019-04-06T18:38:43.197Z,12.18
2019-04-06T18:41:23.931Z,19.02
2019-04-06T18:43:56.058Z,16.15
2019-04-06T18:46:28.095Z,7.28
2019-04-06T18:48:59.718Z,9.33
2019-04-06T18:51:31.689Z,7.35
2019-04-06T18:54:04.478Z,7.28
2019-04-06T18:57:47.321Z,7.70
2019-04-06T19:00:20.756Z,7.37
2019-04-06T19:02:53.079Z,6.10
2019-04-06T19:05:25.326Z,4.15
2019-04-06T19:09:35.106Z,7.05
2019-04-06T19:12:07.773Z,6.00
2019-04-06T19:14:41.534Z,3.95
2019-04-06T19:17:15.152Z,4.72
2019-04-06T19:19:47.376Z,4.28
2019-04-06T19:22:19.478Z,5.78
2019-04-06T19:24:51.808Z,9.33
2019-04-06T19:27:23.849Z,7.80
2019-04-06T19:29:56.800Z,7.65
2019-04-06T19:32:29.322Z,9.73
2019-04-06T19:35:02.814Z,10.08
2019-04-06T19:37:34.932Z,9.15
2019-04-06T19:40:08.842Z,9.73
2019-04-06T19:42:40.856Z,9.33
2019-04-06T19:45:13.550Z,10.00
2019-04-06T19:47:46.108Z,9.63
2019-04-06T19:50:18.683Z,9.40
2019-04-06T19:52:51.690Z,10.78
2019-04-06T19:55:24.600Z,7.50
2019-04-06T19:57:57.143Z,9.40
2019-04-06T20:00:30.085Z,10.72
2019-04-06T20:03:02.373Z,9.90
2019-04-06T20:05:34.632Z,8.08
2019-04-06T20:08:07.143Z,7.53
2019-04-06T20:10:39.680Z,7.40
2019-04-06T20:13:12.096Z,8.33
2019-04-06T20:15:44.347Z,9.93
2019-04-06T20:18:16.318Z,9.23
2019-04-06T20:20:48.381Z,7.60
2019-04-06T20:23:20.464Z,11.05
2019-04-06T20:25:52.997Z,8.48
2019-04-06T20:28:25.103Z,6.10
2019-04-06T20:30:57.511Z,7.40
2019-04-06T20:33:29.615Z,9.65
2019-04-06T20:36:02.920Z,9.60
2019-04-06T20:38:34.918Z,7.50
2019-04-06T20:41:07.071Z,9.10
2019-04-06T20:43:39.554Z,7.08
2019-04-06T20:59:58.494Z,13.72
2019-04-06T21:02:32.497Z,17.92
2019-04-06T21:05:05.554Z,11.20
2019-04-06T21:07:39.168Z,7.70
2019-04-06T21:10:13.818Z,12.37
2019-04-06T21:12:45.977Z,9.75
2019-04-06T21:15:21.061Z,11.38
2019-04-06T21:17:53.375Z,12.03
2019-04-06T21:20:26.516Z,14.98
2019-04-06T21:22:59.517Z,9.63
2019-04-06T21:25:33.846Z,11.15
2019-04-06T21:28:06.568Z,13.85
2019-04-06T21:30:39.075Z,11.70
2019-04-06T21:33:12.102Z,12.03
2019-04-06T21:35:44.705Z,13.40
2019-04-06T21:38:17.106Z,9.28
2019-04-06T21:40:49.366Z,13.15
2019-04-06T21:43:21.437Z,11.50
2019-04-06T21:45:54.828Z,10.60
2019-04-06T21:48:27.070Z,10.45
2019-04-06T21:51:00.043Z,11.68
2019-04-06T21:53:34.572Z,14.18
2019-04-06T21:56:08.274Z,16.12
2019-04-06T21:58:40.669Z,10.00
2019-04-06T22:01:15.549Z,12.82
2019-04-06T22:03:51.033Z,11.22
2019-04-06T22:06:24.991Z,15.85
2019-04-06T22:08:56.929Z,11.93
2019-04-06T22:11:29.024Z,12.63
2019-04-06T22:14:02.471Z,16.55
2019-04-06T22:16:35.329Z,11.15
2019-04-06T22:19:07.956Z,11.57
2019-04-06T22:21:40.134Z,9.95
2019-04-06T22:24:12.533Z,11.90
2019-04-06T22:26:45.100Z,12.33
2019-04-06T22:29:17.408Z,15.25
2019-04-06T22:31:49.537Z,15.68
2019-04-06T22:34:21.811Z,13.43
2019-04-06T22:36:53.929Z,9.78
2019-04-06T22:39:26.124Z,10.43
2019-04-06T22:41:58.288Z,11.53
2019-04-06T22:44:30.383Z,4.92
2019-04-06T22:47:04.837Z,11.50
2019-04-06T22:49:37.521Z,12.50
2019-04-06T22:52:10.152Z,10.70
2019-04-06T22:54:42.641Z,10.20
2019-04-06T22:57:14.791Z,9.78
2019-04-06T22:59:48.430Z,7.28
2019-04-06T23:02:20.538Z,8.38
2019-04-06T23:05:00.114Z,8.43
2019-04-06T23:07:32.611Z,10.30
2019-04-06T23:10:07.938Z,8.60
2019-04-06T23:12:40.472Z,8.50
2019-04-06T23:15:13.501Z,10.68
2019-04-06T23:17:45.438Z,8.60
2019-04-06T23:20:17.481Z,7.33
2019-04-06T23:22:49.778Z,8.78
2019-04-06T23:25:22.018Z,8.83
2019-04-06T23:27:53.951Z,11.35
2019-04-06T23:30:26.419Z,10.05
2019-04-06T23:32:58.494Z,11.35
2019-04-06T23:35:30.503Z,11.75
2019-04-06T23:38:03.003Z,9.15
2019-04-06T23:40:34.914Z,9.03
2019-04-06T23:43:07.469Z,10.72
2019-04-06T23:45:39.816Z,11.88
2019-04-06T23:48:12.044Z,8.95
2019-04-06T23:50:44.173Z,12.15
2019-04-06T23:53:16.149Z,10.63
2019-04-06T23:55:48.067Z,5.12
2019-04-06T23:58:19.984Z,11.43
